Time;durP1;ratioP1;P1;durP2;ratioP2;P2;SDS_P1;SDS_P2;PMS_P1;PMS_P2;Temp;Humidity;BMP_temperature;BMP_pressure;BME280_temperature;BME280_humidity;BME280_pressure;Samples;Min_cycle;Max_cycle;Signal;HPM_P1;HPM_P2
2021/08/22 00:00:07;;;;;;;33.60;29.92;;;;;;;13.29;100.00;99400.38;2080433;28;20262;-75
2021/08/22 00:01:13;;;;;;;33.10;29.70;;;;;;;13.27;100.00;99399.88;2080280;28;20228;-74
2021/08/22 00:02:14;;;;;;;36.75;30.15;;;;;;;13.23;100.00;99405.06;2081122;28;20634;-74
2021/08/22 00:03:15;;;;;;;37.40;31.05;;;;;;;13.23;100.00;99393.56;2081206;28;20226;-75
2021/08/22 00:04:17;;;;;;;36.03;29.27;;;;;;;13.21;100.00;99395.78;2080403;28;20281;-74
2021/08/22 00:05:17;;;;;;;35.63;30.38;;;;;;;13.17;100.00;99389.38;2080647;28;20290;-74
2021/08/22 00:06:19;;;;;;;33.30;29.30;;;;;;;13.18;100.00;99396.31;2081211;28;20226;-75
2021/08/22 00:07:22;;;;;;;32.78;29.27;;;;;;;13.15;100.00;99396.94;2080774;28;20243;-75
2021/08/22 00:08:23;;;;;;;34.40;30.70;;;;;;;13.14;100.00;99393.47;2081146;28;20230;-74
2021/08/22 00:09:24;;;;;;;32.92;29.58;;;;;;;13.13;100.00;99394.56;2080362;28;20246;-74
2021/08/22 00:10:27;;;;;;;35.77;30.03;;;;;;;13.11;100.00;99393.28;2080098;28;20224;-74
2021/08/22 00:11:28;;;;;;;33.67;29.75;;;;;;;13.12;100.00;99392.19;2081070;28;20231;-73
2021/08/22 00:12:29;;;;;;;36.43;30.77;;;;;;;13.10;100.00;99400.53;2081156;28;20215;-74
2021/08/22 00:13:30;;;;;;;37.40;30.88;;;;;;;13.08;100.00;99391.22;2081266;28;20250;-74
2021/08/22 00:14:31;;;;;;;34.23;30.43;;;;;;;13.06;100.00;99398.78;2081187;28;20227;-74
2021/08/22 00:15:32;;;;;;;33.40;29.80;;;;;;;13.04;100.00;99396.41;2081158;28;20580;-74
2021/08/22 00:16:34;;;;;;;32.77;28.70;;;;;;;13.02;100.00;99394.00;2081197;28;20223;-75
2021/08/22 00:17:34;;;;;;;33.30;29.75;;;;;;;12.99;100.00;99397.28;2080876;28;20231;-74
2021/08/22 00:18:36;;;;;;;32.97;29.37;;;;;;;12.97;100.00;99402.19;2080999;28;20216;-74
2021/08/22 00:19:36;;;;;;;34.40;30.17;;;;;;;12.93;100.00;99395.03;2080778;28;20244;-73
2021/08/22 00:20:38;;;;;;;33.70;30.07;;;;;;;12.91;100.00;99395.34;2080236;28;20229;-74
2021/08/22 00:21:38;;;;;;;34.75;31.02;;;;;;;12.91;100.00;99398.03;2080404;28;20760;-74
2021/08/22 00:22:40;;;;;;;34.63;30.90;;;;;;;12.91;100.00;99397.22;2081266;28;20562;-74
2021/08/22 00:23:41;;;;;;;35.85;31.02;;;;;;;12.89;100.00;99391.38;2080976;28;20246;-75
2021/08/22 00:24:42;;;;;;;37.33;30.93;;;;;;;12.89;100.00;99388.72;2081043;28;20678;-74
2021/08/22 00:25:44;;;;;;;36.35;31.42;;;;;;;12.90;100.00;99391.09;2080230;28;20247;-74
2021/08/22 00:26:46;;;;;;;33.53;30.08;;;;;;;12.91;100.00;99391.88;2080265;28;20238;-74
2021/08/22 00:27:46;;;;;;;34.58;30.88;;;;;;;12.91;100.00;99381.16;2081141;28;21093;-74
2021/08/22 00:28:48;;;;;;;37.27;31.00;;;;;;;12.88;100.00;99389.81;2081092;28;20235;-75
2021/08/22 00:29:49;;;;;;;37.03;30.95;;;;;;;12.87;100.00;99383.66;2080996;28;20769;-74
2021/08/22 00:30:50;;;;;;;37.07;31.87;;;;;;;12.87;100.00;99389.03;2080985;28;20583;-75
2021/08/22 00:31:51;;;;;;;36.92;31.50;;;;;;;12.86;100.00;99395.47;2080962;28;20310;-74
2021/08/22 00:32:52;;;;;;;37.07;31.27;;;;;;;12.85;100.00;99391.19;2079771;28;20234;-74
2021/08/22 00:33:53;;;;;;;35.28;31.42;;;;;;;12.84;100.00;99392.28;2080217;28;20325;-74
2021/08/22 00:34:54;;;;;;;36.17;32.03;;;;;;;12.85;100.00;99390.41;2080223;28;20705;-75
2021/08/22 00:35:55;;;;;;;36.35;32.50;;;;;;;12.84;100.00;99386.94;2080906;28;20227;-74
2021/08/22 00:36:57;;;;;;;38.60;31.30;;;;;;;12.81;100.00;99387.53;2080140;28;20235;-74
2021/08/22 00:37:58;;;;;;;34.85;31.10;;;;;;;12.82;100.00;99389.13;2080054;28;20254;-74
2021/08/22 00:38:59;;;;;;;37.22;30.52;;;;;;;12.82;100.00;99389.13;2080873;28;20215;-74
2021/08/22 00:40:00;;;;;;;37.10;32.30;;;;;;;12.81;100.00;99392.91;2080087;28;20302;-74
2021/08/22 00:41:03;;;;;;;36.23;32.27;;;;;;;12.81;100.00;99390.22;2080260;28;20299;-74
2021/08/22 00:42:04;;;;;;;37.35;32.75;;;;;;;12.81;100.00;99387.53;2080970;28;20302;-74
2021/08/22 00:43:07;;;;;;;33.83;30.27;;;;;;;12.80;100.00;99385.97;2080878;28;20227;-74
2021/08/22 00:44:07;;;;;;;44.20;32.40;;;;;;;12.78;100.00;99390.84;2080579;28;20681;-74
2021/08/22 00:45:10;;;;;;;40.00;32.20;;;;;;;12.76;100.00;99386.84;2080859;28;20567;-73
2021/08/22 00:46:11;;;;;;;36.55;32.60;;;;;;;12.76;100.00;99378.81;2080781;28;20230;-74
2021/08/22 00:47:13;;;;;;;38.20;34.10;;;;;;;12.72;100.00;99381.31;2080844;28;20227;-74
2021/08/22 00:48:13;;;;;;;37.95;33.92;;;;;;;12.71;100.00;99388.56;2080907;28;20219;-75
2021/08/22 00:49:15;;;;;;;42.17;34.53;;;;;;;12.70;100.00;99380.84;2080837;28;20223;-75
2021/08/22 00:50:17;;;;;;;45.58;37.38;;;;;;;12.71;100.00;99387.78;2080710;28;20306;-75
2021/08/22 00:51:19;;;;;;;40.05;33.85;;;;;;;12.70;100.00;99386.97;2080047;28;20222;-74
2021/08/22 00:52:19;;;;;;;41.95;36.83;;;;;;;12.69;100.00;99387.28;2080009;28;20230;-74
2021/08/22 00:53:21;;;;;;;45.80;38.37;;;;;;;12.69;100.00;99384.63;2079922;28;20233;-74
2021/08/22 00:54:22;;;;;;;40.75;34.55;;;;;;;12.69;100.00;99384.63;2079709;28;20250;-74
2021/08/22 00:55:23;;;;;;;48.57;38.47;;;;;;;12.67;100.00;99381.44;2080823;28;20224;-75
2021/08/22 00:56:25;;;;;;;42.38;36.35;;;;;;;12.65;100.00;99383.63;2080591;28;20258;-73
2021/08/22 00:57:27;;;;;;;41.33;35.03;;;;;;;12.66;100.00;99377.97;2080718;28;20231;-74
2021/08/22 00:58:27;;;;;;;40.30;35.80;;;;;;;12.64;100.00;99382.03;2079889;28;20298;-74
2021/08/22 00:59:29;;;;;;;47.80;37.40;;;;;;;12.65;100.00;99384.41;2080129;28;20269;-75
2021/08/22 01:00:30;;;;;;;53.03;39.30;;;;;;;12.64;100.00;99382.03;2080814;28;20227;-75
2021/08/22 01:01:33;;;;;;;43.93;37.97;;;;;;;12.63;100.00;99380.47;2079851;28;20216;-74
2021/08/22 01:02:36;;;;;;;47.60;37.70;;;;;;;12.64;100.00;99374.78;2080214;28;20223;-74
2021/08/22 01:03:41;;;;;;;41.42;36.53;;;;;;;12.63;100.00;99377.78;2080777;28;20578;-74
2021/08/22 01:04:48;;;;;;;44.58;35.72;;;;;;;12.61;100.00;99380.75;2079673;28;20295;-74
2021/08/22 01:05:54;;;;;;;43.92;38.00;;;;;;;12.62;100.00;99378.88;2072650;28;20212;-74
2021/08/22 01:07:00;;;;;;;43.55;35.95;;;;;;;12.61;100.00;99379.97;2072084;28;20224;-75
2021/08/22 01:08:05;;;;;;;43.47;36.63;;;;;;;12.58;100.00;99380.56;2080088;28;20227;-75
2021/08/22 01:09:13;;;;;;;41.60;33.78;;;;;;;12.56;100.00;99380.84;2080359;28;20612;-74
2021/08/22 01:10:17;;;;;;;40.15;34.22;;;;;;;12.54;100.00;99372.34;2080841;28;20587;-75
2021/08/22 01:11:21;;;;;;;44.05;36.00;;;;;;;12.53;100.00;99375.31;2079853;28;20223;-74
2021/08/22 01:12:28;;;;;;;49.35;37.15;;;;;;;12.54;100.00;99376.91;2079709;28;20219;-74
2021/08/22 01:13:34;;;;;;;50.67;38.55;;;;;;;12.52;100.00;99374.53;2079571;28;20226;-74
2021/08/22 01:14:37;;;;;;;47.05;37.35;;;;;;;12.52;100.00;99379.91;2079963;28;20255;-74
2021/08/22 01:15:42;;;;;;;45.75;37.25;;;;;;;12.50;100.00;99373.22;2079288;28;20234;-74
2021/08/22 01:16:49;;;;;;;49.10;38.30;;;;;;;12.52;100.00;99373.75;2072151;28;20250;-74
2021/08/22 01:17:51;;;;;;;40.92;34.65;;;;;;;12.51;100.00;99377.50;2079806;28;20703;-74
2021/08/22 01:18:56;;;;;;;39.67;34.47;;;;;;;12.49;100.00;99372.44;2079241;28;20234;-75
2021/08/22 01:20:04;;;;;;;42.22;35.38;;;;;;;12.48;100.00;99378.09;2080055;28;20319;-75
2021/08/22 01:21:10;;;;;;;47.72;37.83;;;;;;;12.47;100.00;99374.63;2079963;28;20270;-75
2021/08/22 01:22:10;;;;;;;44.67;36.83;;;;;;;12.47;100.00;99379.19;2079054;28;20224;-74
2021/08/22 01:23:12;;;;;;;45.63;36.80;;;;;;;12.44;100.00;99373.38;2080271;28;20226;-74
2021/08/22 01:24:14;;;;;;;42.35;35.40;;;;;;;12.45;100.00;99382.97;2079816;28;20682;-74
2021/08/22 01:25:16;;;;;;;46.03;36.17;;;;;;;12.46;100.00;99375.72;2079849;28;20246;-74
2021/08/22 01:26:18;;;;;;;47.30;36.70;;;;;;;12.43;100.00;99373.66;2080587;28;20322;-75
2021/08/22 01:27:20;;;;;;;43.70;36.33;;;;;;;12.44;100.00;99376.03;2080590;28;20227;-74
2021/08/22 01:28:22;;;;;;;42.63;34.28;;;;;;;12.43;100.00;99373.66;2080578;28;20729;-74
2021/08/22 01:29:28;;;;;;;44.55;35.92;;;;;;;12.41;100.00;99367.78;2078981;28;20231;-74
2021/08/22 01:30:29;;;;;;;45.70;36.03;;;;;;;12.40;100.00;99379.59;2079862;28;20716;-74
2021/08/22 01:31:34;;;;;;;41.80;36.33;;;;;;;12.40;100.00;99375.03;2080475;28;20545;-74
2021/08/22 01:32:37;;;;;;;44.10;35.63;;;;;;;12.38;100.00;99377.22;2080424;28;20302;-75
2021/08/22 01:33:39;;;;;;;46.03;36.05;;;;;;;12.39;100.00;99375.34;2080207;28;20224;-74
2021/08/22 01:34:40;;;;;;;42.95;33.55;;;;;;;12.36;100.00;99371.38;2080430;28;20223;-74
2021/08/22 01:35:42;;;;;;;39.40;34.20;;;;;;;12.36;100.00;99374.06;2080392;28;20223;-74
2021/08/22 01:36:43;;;;;;;43.00;34.92;;;;;;;12.36;100.00;99376.75;2079615;28;20740;-73
2021/08/22 01:37:46;;;;;;;40.25;33.33;;;;;;;12.33;100.00;99374.66;2079751;28;20250;-74
2021/08/22 01:38:47;;;;;;;40.95;34.50;;;;;;;12.31;100.00;99374.16;2080546;28;20219;-74
2021/08/22 01:39:50;;;;;;;40.28;35.80;;;;;;;12.30;100.00;99369.91;2079690;28;20223;-74
2021/08/22 01:40:51;;;;;;;45.20;35.97;;;;;;;12.31;100.00;99374.16;2079868;28;20243;-74
2021/08/22 01:41:54;;;;;;;44.25;36.15;;;;;;;12.30;100.00;99377.13;2080182;28;20258;-73
2021/08/22 01:42:55;;;;;;;46.22;36.97;;;;;;;12.30;100.00;99382.50;2080397;28;20656;-74
2021/08/22 01:43:57;;;;;;;43.35;36.03;;;;;;;12.30;100.00;99367.22;2079651;28;20238;-74
2021/08/22 01:44:58;;;;;;;42.00;34.78;;;;;;;12.29;100.00;99373.66;2071668;28;20313;-74
2021/08/22 01:46:00;;;;;;;43.95;35.67;;;;;;;12.26;100.00;99374.28;2079524;28;20306;-74
2021/08/22 01:47:03;;;;;;;44.20;35.88;;;;;;;12.25;100.00;99369.19;2079814;28;20215;-73
2021/08/22 01:48:07;;;;;;;45.05;36.13;;;;;;;12.27;100.00;99367.84;2080574;28;20220;-74
2021/08/22 01:49:09;;;;;;;46.95;37.35;;;;;;;12.28;100.00;99366.75;2079969;28;20754;-74
2021/08/22 01:50:11;;;;;;;48.60;37.13;;;;;;;12.29;100.00;99376.34;2080392;28;20712;-74
2021/08/22 01:51:13;;;;;;;40.80;36.08;;;;;;;12.28;100.00;99366.75;2080396;28;20231;-74
2021/08/22 01:52:14;;;;;;;42.10;35.95;;;;;;;12.30;100.00;99367.22;2080273;28;20310;-74
2021/08/22 01:53:16;;;;;;;42.22;34.42;;;;;;;12.28;100.00;99374.78;2080164;28;20673;-74
2021/08/22 01:54:17;;;;;;;39.50;33.00;;;;;;;12.30;100.00;99372.56;2079670;28;20223;-75
2021/08/22 01:55:18;;;;;;;39.23;32.70;;;;;;;12.31;100.00;99368.00;2079734;28;20219;-74
2021/08/22 01:56:19;;;;;;;36.92;32.33;;;;;;;12.35;100.00;99374.38;2080402;28;20226;-75
2021/08/22 01:57:21;;;;;;;36.00;31.43;;;;;;;12.36;100.00;99375.94;2079680;28;20293;-74
2021/08/22 01:58:24;;;;;;;38.85;31.38;;;;;;;12.37;100.00;99378.31;2079121;28;20247;-74
2021/08/22 01:59:25;;;;;;;34.00;30.45;;;;;;;12.39;100.00;99376.13;2079587;28;20246;-74
2021/08/22 02:00:26;;;;;;;42.25;34.60;;;;;;;12.37;100.00;99372.97;2080428;28;20254;-75
2021/08/22 02:01:28;;;;;;;36.37;32.23;;;;;;;12.37;100.00;99367.63;2080397;28;20239;-75
2021/08/22 02:02:28;;;;;;;37.30;32.75;;;;;;;12.38;100.00;99381.78;2080352;28;20226;-75
2021/08/22 02:03:35;;;;;;;39.10;33.80;;;;;;;12.39;100.00;99375.34;2080347;28;20220;-74
2021/08/22 02:04:43;;;;;;;36.42;32.53;;;;;;;12.35;100.00;99372.47;2079888;28;20306;-73
2021/08/22 02:05:46;;;;;;;41.08;32.95;;;;;;;12.34;100.00;99378.94;2080210;28;20227;-74
2021/08/22 02:06:51;;;;;;;37.38;33.05;;;;;;;12.33;100.00;99371.19;2079280;28;20274;-75
2021/08/22 02:07:53;;;;;;;40.15;32.22;;;;;;;12.31;100.00;99376.84;2079433;28;20239;-74
2021/08/22 02:08:56;;;;;;;40.67;32.85;;;;;;;12.29;100.00;99379.03;2079481;28;20686;-74
2021/08/22 02:10:01;;;;;;;38.10;32.25;;;;;;;12.28;100.00;99379.31;2079482;28;20232;-74
2021/08/22 02:11:07;;;;;;;34.88;31.27;;;;;;;12.29;100.00;99376.34;2079706;28;20222;-74
2021/08/22 02:12:12;;;;;;;37.45;32.28;;;;;;;12.28;100.00;99380.13;2079706;28;20227;-74
2021/08/22 02:13:15;;;;;;;36.88;32.88;;;;;;;12.32;100.00;99378.41;2080348;28;20299;-75
2021/08/22 02:14:18;;;;;;;37.28;31.60;;;;;;;12.33;100.00;99377.31;2080409;28;20219;-74
2021/08/22 02:15:22;;;;;;;44.38;35.20;;;;;;;12.35;100.00;99374.38;2080527;28;20306;-74
2021/08/22 02:16:26;;;;;;;40.20;33.22;;;;;;;12.35;100.00;99375.16;2079097;28;20306;-74
2021/08/22 02:17:30;;;;;;;37.08;32.90;;;;;;;12.36;100.00;99376.75;2071612;28;20327;-74
2021/08/22 02:18:34;;;;;;;41.10;32.35;;;;;;;12.33;100.00;99376.53;2079594;28;20306;-74
2021/08/22 02:19:35;;;;;;;39.95;32.08;;;;;;;12.32;100.00;99372.28;2080328;28;20226;-74
2021/08/22 02:20:38;;;;;;;35.03;31.10;;;;;;;12.29;100.00;99371.00;2080397;28;20709;-74
2021/08/22 02:21:39;;;;;;;33.97;30.35;;;;;;;12.29;100.00;99371.00;2079991;28;20666;-75
2021/08/22 02:22:42;;;;;;;37.67;32.08;;;;;;;12.26;100.00;99370.81;2080293;28;20226;-74
2021/08/22 02:23:43;;;;;;;36.90;30.63;;;;;;;12.22;100.00;99370.59;2080350;28;20219;-74
2021/08/22 02:24:45;;;;;;;38.93;32.13;;;;;;;12.20;100.00;99372.78;2079473;28;20215;-74
2021/08/22 02:25:45;;;;;;;37.72;32.47;;;;;;;12.19;100.00;99373.09;2079659;28;20220;-74
2021/08/22 02:26:47;;;;;;;36.10;32.20;;;;;;;12.17;100.00;99368.03;2079562;28;20223;-74
2021/08/22 02:27:48;;;;;;;36.70;30.48;;;;;;;12.16;100.00;99366.44;2079622;28;20219;-74
2021/08/22 02:28:54;;;;;;;35.10;31.40;;;;;;;12.13;100.00;99372.41;2080494;28;20230;-74
2021/08/22 02:29:55;;;;;;;36.58;32.80;;;;;;;12.11;100.00;99366.56;2079937;28;20311;-74
2021/08/22 02:30:57;;;;;;;37.88;32.13;;;;;;;12.06;100.00;99359.41;2079472;28;20689;-74
2021/08/22 02:31:58;;;;;;;39.78;32.90;;;;;;;12.08;100.00;99370.63;2079731;28;20573;-75
2021/08/22 02:32:59;;;;;;;34.70;31.13;;;;;;;12.04;100.00;99366.94;2079396;28;20317;-74
2021/08/22 02:34:02;;;;;;;37.70;31.88;;;;;;;12.04;100.00;99369.63;2080357;28;20250;-74
2021/08/22 02:35:04;;;;;;;40.65;32.75;;;;;;;12.03;100.00;99373.38;2081968;28;20242;-75
2021/08/22 02:36:05;;;;;;;41.33;34.35;;;;;;;12.01;100.00;99364.09;2081932;28;20224;-74
2021/08/22 02:37:06;;;;;;;38.50;33.55;;;;;;;12.03;100.00;99361.91;2081966;28;20250;-75
2021/08/22 02:38:08;;;;;;;38.67;33.30;;;;;;;12.00;100.00;99362.50;2080648;28;20701;-74
2021/08/22 02:39:08;;;;;;;39.65;33.00;;;;;;;11.99;100.00;99376.94;2081250;28;20247;-74
2021/08/22 02:40:10;;;;;;;41.83;34.10;;;;;;;11.99;100.00;99366.25;2081796;28;20226;-75
2021/08/22 02:41:12;;;;;;;37.13;31.50;;;;;;;11.98;100.00;99367.34;2081724;28;20735;-74
2021/08/22 02:42:14;;;;;;;36.63;31.73;;;;;;;12.00;100.00;99367.84;2081011;28;20215;-74
2021/08/22 02:43:14;;;;;;;38.15;32.05;;;;;;;11.97;100.00;99363.88;2072583;28;20314;-75
2021/08/22 02:44:16;;;;;;;37.93;33.70;;;;;;;11.94;100.00;99361.81;2081253;28;20235;-74
2021/08/22 02:45:17;;;;;;;38.42;34.33;;;;;;;11.93;100.00;99362.09;2081094;28;20227;-74
2021/08/22 02:46:18;;;;;;;39.43;33.00;;;;;;;11.89;100.00;99361.88;2072893;28;20220;-74
2021/08/22 02:47:19;;;;;;;36.90;32.17;;;;;;;11.87;100.00;99366.75;2081105;28;20770;-74
2021/08/22 02:48:20;;;;;;;35.40;31.57;;;;;;;11.86;100.00;99352.59;2081775;28;20591;-74
2021/08/22 02:49:22;;;;;;;41.70;32.65;;;;;;;11.85;100.00;99358.25;2080970;28;20310;-73
2021/08/22 02:50:24;;;;;;;37.70;31.67;;;;;;;11.84;100.00;99353.97;2080659;28;20563;-74
2021/08/22 02:51:26;;;;;;;38.50;31.05;;;;;;;11.84;100.00;99359.34;2081134;28;20257;-75
2021/08/22 02:52:26;;;;;;;40.45;33.08;;;;;;;11.82;100.00;99356.97;2081077;28;20255;-74
2021/08/22 02:53:28;;;;;;;41.03;32.27;;;;;;;11.82;100.00;99354.28;2081111;28;20230;-74
2021/08/22 02:54:29;;;;;;;36.83;31.08;;;;;;;11.83;100.00;99361.22;2080549;28;20223;-74
2021/08/22 02:55:30;;;;;;;41.00;32.60;;;;;;;11.81;100.00;99360.69;2081089;28;20227;-74
2021/08/22 02:56:31;;;;;;;39.55;32.25;;;;;;;11.79;100.00;99360.19;2081841;28;20250;-74
2021/08/22 02:57:33;;;;;;;38.67;32.27;;;;;;;11.80;100.00;99356.44;2081921;28;20226;-74
2021/08/22 02:58:33;;;;;;;39.10;33.05;;;;;;;11.79;100.00;99357.50;2081580;28;20227;-74
2021/08/22 02:59:35;;;;;;;37.27;31.73;;;;;;;11.78;100.00;99355.91;2080969;28;20282;-74
2021/08/22 03:00:36;;;;;;;39.92;31.33;;;;;;;11.76;100.00;99352.75;2080315;28;20247;-74
2021/08/22 03:01:38;;;;;;;40.83;32.53;;;;;;;11.76;100.00;99351.97;2080627;28;20234;-75
2021/08/22 03:02:39;;;;;;;41.25;32.30;;;;;;;11.77;100.00;99348.19;2081819;28;20674;-74
2021/08/22 03:03:40;;;;;;;36.67;32.30;;;;;;;11.75;100.00;99350.38;2081707;28;20551;-74
2021/08/22 03:04:42;;;;;;;34.20;30.70;;;;;;;11.74;100.00;99348.81;2081727;28;20226;-74
2021/08/22 03:05:44;;;;;;;38.72;31.60;;;;;;;11.74;100.00;99346.13;2081769;28;20223;-74
2021/08/22 03:06:44;;;;;;;35.22;31.45;;;;;;;11.73;100.00;99347.22;2080942;28;20215;-75
2021/08/22 03:07:46;;;;;;;39.83;31.27;;;;;;;11.72;100.00;99345.63;2080980;28;20701;-74
2021/08/22 03:08:47;;;;;;;37.08;31.88;;;;;;;11.71;100.00;99349.38;2081663;28;20573;-74
2021/08/22 03:09:49;;;;;;;37.70;32.33;;;;;;;11.71;100.00;99344.81;2080855;28;20219;-74
2021/08/22 03:10:49;;;;;;;39.70;32.05;;;;;;;11.70;100.00;99348.59;2081086;28;20643;-74
2021/08/22 03:11:51;;;;;;;39.50;33.37;;;;;;;11.68;100.00;99349.97;2080780;28;20223;-74
2021/08/22 03:12:52;;;;;;;36.53;31.05;;;;;;;11.69;100.00;99344.34;2080540;28;20227;-74
2021/08/22 03:13:53;;;;;;;39.87;31.53;;;;;;;11.67;100.00;99346.50;2081574;28;20227;-74
2021/08/22 03:14:54;;;;;;;38.80;31.98;;;;;;;11.68;100.00;99350.78;2080767;28;20673;-74
2021/08/22 03:15:55;;;;;;;36.77;31.57;;;;;;;11.68;100.00;99339.28;2080974;28;20227;-75
2021/08/22 03:16:56;;;;;;;41.67;33.58;;;;;;;11.66;100.00;99350.28;2081586;28;20693;-74
2021/08/22 03:17:57;;;;;;;37.37;33.37;;;;;;;11.66;100.00;99350.28;2081543;28;20239;-74
2021/08/22 03:18:58;;;;;;;38.13;32.10;;;;;;;11.65;100.00;99348.69;2080513;28;20262;-74
2021/08/22 03:20:03;;;;;;;38.90;32.57;;;;;;;11.64;100.00;99355.13;2080868;28;20219;-75
2021/08/22 03:21:04;;;;;;;38.70;32.15;;;;;;;11.63;100.00;99353.53;2081750;28;20230;-74
2021/08/22 03:22:05;;;;;;;36.17;31.73;;;;;;;11.62;100.00;99351.94;2081511;28;20258;-74
2021/08/22 03:23:06;;;;;;;39.78;32.17;;;;;;;11.62;100.00;99351.94;2080685;28;20239;-74
2021/08/22 03:24:07;;;;;;;39.93;33.53;;;;;;;11.61;100.00;99356.50;2079920;28;20227;-74
2021/08/22 03:25:09;;;;;;;36.60;32.70;;;;;;;11.59;100.00;99353.34;2089018;28;20281;-74
2021/08/22 03:26:10;;;;;;;35.30;31.15;;;;;;;11.61;100.00;99350.38;2081484;28;20293;-74
2021/08/22 03:27:11;;;;;;;36.22;31.27;;;;;;;11.60;100.00;99354.13;2081631;28;20255;-74
2021/08/22 03:28:13;;;;;;;36.23;32.40;;;;;;;11.58;100.00;99346.41;2081527;28;20231;-74
2021/08/22 03:29:13;;;;;;;38.10;32.05;;;;;;;11.59;100.00;99347.19;2081676;28;20250;-74
2021/08/22 03:30:15;;;;;;;37.40;33.20;;;;;;;11.56;100.00;99345.91;2080757;28;20223;-74
2021/08/22 03:31:15;;;;;;;40.65;32.83;;;;;;;11.57;100.00;99346.72;2072554;28;20251;-74
2021/08/22 03:32:17;;;;;;;37.07;32.43;;;;;;;11.55;100.00;99340.84;2080879;28;20227;-75
2021/08/22 03:33:19;;;;;;;39.25;33.03;;;;;;;11.56;100.00;99342.47;2072598;28;20261;-74
2021/08/22 03:34:20;;;;;;;37.60;32.72;;;;;;;11.56;100.00;99347.81;2072338;28;20226;-75
2021/08/22 03:35:22;;;;;;;37.85;33.95;;;;;;;11.53;100.00;99343.03;2080741;28;20275;-74
2021/08/22 03:36:24;;;;;;;36.03;32.03;;;;;;;11.56;100.00;99345.13;2080379;28;20219;-73
2021/08/22 03:37:25;;;;;;;42.03;34.50;;;;;;;11.55;100.00;99340.84;2080656;28;20219;-73
2021/08/22 03:38:27;;;;;;;47.63;34.10;;;;;;;11.54;100.00;99345.41;2080688;28;20222;-74
2021/08/22 03:39:28;;;;;;;39.78;33.38;;;;;;;11.54;100.00;99345.41;2080657;28;20763;-75
2021/08/22 03:40:29;;;;;;;38.97;32.73;;;;;;;11.53;100.00;99343.81;2080734;28;20625;-74
2021/08/22 03:41:32;;;;;;;40.60;32.25;;;;;;;11.53;100.00;99346.50;2081551;28;20310;-74
2021/08/22 03:42:33;;;;;;;40.72;32.22;;;;;;;11.51;100.00;99346.00;2080700;28;20302;-74
2021/08/22 03:43:34;;;;;;;37.53;32.80;;;;;;;11.52;100.00;99344.13;2080749;28;20689;-74
2021/08/22 03:44:35;;;;;;;39.93;32.60;;;;;;;11.51;100.00;99339.88;2080651;28;20639;-74
2021/08/22 03:45:36;;;;;;;40.83;34.03;;;;;;;11.51;100.00;99345.22;2079764;28;20311;-75
2021/08/22 03:46:38;;;;;;;42.50;33.93;;;;;;;11.48;100.00;99340.47;2080131;28;20234;-74
2021/08/22 03:47:38;;;;;;;38.35;33.10;;;;;;;11.50;100.00;99338.28;2080749;28;20230;-74
2021/08/22 03:48:40;;;;;;;40.00;33.27;;;;;;;11.51;100.00;99343.31;2080622;28;20237;-74
2021/08/22 03:49:40;;;;;;;38.33;31.90;;;;;;;11.52;100.00;99338.78;2080766;28;20242;-74
2021/08/22 03:50:43;;;;;;;35.97;32.03;;;;;;;11.52;100.00;99339.56;2081366;28;20231;-74
2021/08/22 03:51:44;;;;;;;38.42;32.45;;;;;;;11.53;100.00;99340.34;2081257;28;20216;-74
2021/08/22 03:52:47;;;;;;;40.05;33.55;;;;;;;11.55;100.00;99340.84;2081327;28;20697;-75
2021/08/22 03:53:48;;;;;;;40.65;33.13;;;;;;;11.55;100.00;99346.19;2080514;28;20318;-75
2021/08/22 03:54:50;;;;;;;41.17;34.07;;;;;;;11.55;100.00;99344.34;2080618;28;20234;-74
2021/08/22 03:55:51;;;;;;;43.10;33.45;;;;;;;11.55;100.00;99340.84;2081329;28;20306;-74
2021/08/22 03:56:52;;;;;;;39.50;33.40;;;;;;;11.56;100.00;99343.25;2081348;28;20216;-74
2021/08/22 03:57:53;;;;;;;39.28;34.08;;;;;;;11.56;100.00;99347.81;2080889;28;20318;-75
2021/08/22 03:58:55;;;;;;;41.83;34.20;;;;;;;11.59;100.00;99347.19;2080310;28;20235;-74
2021/08/22 03:59:55;;;;;;;39.05;33.40;;;;;;;11.59;100.00;99333.84;2080443;28;20235;-75
2021/08/22 04:00:57;;;;;;;38.20;31.83;;;;;;;11.59;100.00;99344.53;2080402;28;20237;-74
2021/08/22 04:01:57;;;;;;;38.45;32.88;;;;;;;11.61;100.00;99350.38;2080444;28;20247;-74
2021/08/22 04:03:19;;;;;;;34.20;30.50;;;;;;;11.64;100.00;99344.44;2080885;28;20726;-74
2021/08/22 04:04:43;;;;;;;33.53;28.65;;;;;;;11.66;100.00;99347.59;2074894;28;20239;-74
2021/08/22 04:05:46;;;;;;;37.23;30.83;;;;;;;11.71;100.00;99352.06;2080470;28;20211;-74
2021/08/22 04:06:50;;;;;;;37.15;30.70;;;;;;;11.72;100.00;99346.41;2080441;28;20261;-74
2021/08/22 04:07:54;;;;;;;39.22;31.38;;;;;;;11.75;100.00;99342.38;2081307;28;20269;-75
2021/08/22 04:08:55;;;;;;;37.53;32.20;;;;;;;11.76;100.00;99346.63;2080095;28;20650;-74
2021/08/22 04:09:56;;;;;;;36.47;31.37;;;;;;;11.75;100.00;99351.19;2080288;28;20636;-74
2021/08/22 04:10:57;;;;;;;39.13;31.88;;;;;;;11.76;100.00;99341.28;2080500;28;20390;-74
2021/08/22 04:11:59;;;;;;;36.28;32.33;;;;;;;11.75;100.00;99343.16;2080413;28;20650;-74
2021/08/22 04:13:00;;;;;;;35.42;31.17;;;;;;;11.74;100.00;99341.56;2080505;28;20716;-74
2021/08/22 04:14:02;;;;;;;40.37;30.77;;;;;;;11.75;100.00;99342.38;2080338;28;20227;-74
2021/08/22 04:15:03;;;;;;;35.15;30.35;;;;;;;11.73;100.00;99342.66;2080474;28;20243;-75
2021/08/22 04:16:05;;;;;;;33.05;29.42;;;;;;;11.74;100.00;99340.78;2081079;28;20292;-74
2021/08/22 04:17:06;;;;;;;35.40;30.75;;;;;;;11.76;100.00;99343.94;2081082;28;20311;-74
2021/08/22 04:18:07;;;;;;;36.50;31.00;;;;;;;11.76;100.00;99344.75;2081012;28;20219;-74
2021/08/22 04:19:08;;;;;;;32.20;28.88;;;;;;;11.78;100.00;99345.22;2080471;28;20258;-74
2021/08/22 04:20:10;;;;;;;32.57;28.50;;;;;;;11.76;100.00;99350.09;2081146;28;20219;-74
2021/08/22 04:21:12;;;;;;;35.67;30.33;;;;;;;11.80;100.00;99347.63;2081044;28;20227;-74
2021/08/22 04:22:14;;;;;;;32.90;29.00;;;;;;;11.79;100.00;99341.47;2081268;28;20222;-74
2021/08/22 04:23:15;;;;;;;31.63;28.38;;;;;;;11.82;100.00;99346.25;2080053;28;20305;-74
2021/08/22 04:24:16;;;;;;;37.05;30.10;;;;;;;11.84;100.00;99343.28;2080308;28;20298;-74
2021/08/22 04:25:17;;;;;;;34.20;30.47;;;;;;;11.84;100.00;99346.75;2080967;28;20219;-74
2021/08/22 04:26:18;;;;;;;33.20;29.77;;;;;;;11.86;100.00;99347.25;2081069;28;20219;-74
2021/08/22 04:27:20;;;;;;;35.53;30.80;;;;;;;11.88;100.00;99349.63;2080350;28;20233;-74
2021/08/22 04:28:22;;;;;;;33.70;29.95;;;;;;;11.88;100.00;99353.06;2080408;28;20643;-74
2021/08/22 04:29:22;;;;;;;32.83;29.33;;;;;;;11.89;100.00;99345.84;2080587;28;20254;-74
2021/08/22 04:30:24;;;;;;;33.90;30.20;;;;;;;11.89;100.00;99346.63;2081033;28;20230;-74
2021/08/22 04:31:25;;;;;;;33.83;29.23;;;;;;;11.88;100.00;99347.72;2080076;28;20674;-75
2021/08/22 04:32:26;;;;;;;32.10;28.70;;;;;;;11.91;100.00;99348.25;2080310;28;20582;-74
2021/08/22 04:33:28;;;;;;;33.10;29.50;;;;;;;11.91;100.00;99351.72;2080171;28;20376;-74
2021/08/22 04:34:30;;;;;;;31.67;28.48;;;;;;;11.92;100.00;99353.28;2080298;28;20259;-74
2021/08/22 04:35:30;;;;;;;31.23;27.92;;;;;;;11.92;100.00;99344.47;2080958;28;20234;-75
2021/08/22 04:36:34;;;;;;;33.23;28.73;;;;;;;11.95;100.00;99347.34;2080147;28;20225;-74
2021/08/22 04:37:34;;;;;;;32.92;28.95;;;;;;;11.98;100.00;99345.94;2080438;28;20220;-74
2021/08/22 04:38:36;;;;;;;31.23;28.13;;;;;;;12.01;100.00;99348.03;2080888;28;20779;-74
2021/08/22 04:39:37;;;;;;;31.13;27.83;;;;;;;12.05;100.00;99354.38;2079508;28;20326;-73
2021/08/22 04:40:38;;;;;;;31.03;27.73;;;;;;;12.08;100.00;99349.22;2080328;28;20266;-74
2021/08/22 04:41:43;;;;;;;30.80;27.58;;;;;;;12.14;100.00;99349.91;2080892;28;20223;-74